Time;durP1;ratioP1;P1;durP2;ratioP2;P2;SDS_P1;SDS_P2;PMS_P1;PMS_P2;Temp;Humidity;BMP_temperature;BMP_pressure;BME280_temperature;BME280_humidity;BME280_pressure;Samples;Min_cycle;Max_cycle;Signal;HPM_P1;HPM_P2
2021/11/20 00:00:51;;;;;;;;;;;;;;;;;;5073798;28;19929;-64
2021/11/20 00:03:18;;;;;;;;;;;;;;;;;;5065133;28;19936;-66
2021/11/20 00:05:45;;;;;;;;;;;;;;;;;;5068373;28;20383;-64
2021/11/20 00:08:12;;;;;;;;;;;;;;;;;;5068926;28;20058;-63
2021/11/20 00:10:39;;;;;;;;;;;;;;;;;;5070902;28;19924;-63
2021/11/20 00:13:08;;;;;;;;;;;;;;;;;;5076629;28;20299;-64
2021/11/20 00:15:35;;;;;;;;;;;;;;;;;;5065204;28;20006;-65
2021/11/20 00:18:02;;;;;;;;;;;;;;;;;;5064158;28;19924;-61
2021/11/20 00:20:28;;;;;;;;;;;;;;;;;;5076177;28;19935;-63
2021/11/20 00:22:55;;;;;;;;;;;;;;;;;;5080389;28;19931;-64
2021/11/20 00:25:23;;;;;;;;;;;;;;;;;;5076810;28;19928;-65
2021/11/20 00:27:50;;;;;;;;;;;;;;;;;;5071717;28;20383;-65
2021/11/20 00:30:19;;;;;;;;;;;;;;;;;;5075840;28;19974;-65
2021/11/20 00:32:46;;;;;;;;;;;;;;;;;;5076231;28;20016;-64
2021/11/20 00:35:13;;;;;;;;;;;;;;;;;;5078999;28;20034;-64
2021/11/20 00:37:40;;;;;;;;;;;;;;;;;;5078743;28;19940;-64
2021/11/20 00:40:07;;;;;;;;;;;;;;;;;;5078764;28;20015;-64
2021/11/20 00:42:34;;;;;;;;;;;;;;;;;;5082209;28;19935;-63
2021/11/20 00:45:01;;;;;;;;;;;;;;;;;;5080775;28;19932;-64
2021/11/20 00:47:28;;;;;;;;;;;;;;;;;;5080704;28;20113;-61
2021/11/20 00:49:57;;;;;;;;;;;;;;;;;;5079633;28;20019;-64
2021/11/20 00:52:24;;;;;;;;;;;;;;;;;;5078883;28;19933;-65
2021/11/20 00:54:51;;;;;;;;;;;;;;;;;;5076083;28;19925;-65
2021/11/20 00:57:18;;;;;;;;;;;;;;;;;;5078266;28;19930;-65
2021/11/20 00:59:45;;;;;;;;;;;;;;;;;;5074099;28;19924;-64
2021/11/20 01:02:12;;;;;;;;;;;;;;;;;;5080662;28;19925;-61
2021/11/20 01:04:39;;;;;;;;;;;;;;;;;;5075852;28;19928;-64
2021/11/20 01:07:06;;;;;;;;;;;;;;;;;;5081673;28;19932;-65
2021/11/20 01:09:33;;;;;;;;;;;;;;;;;;5078352;28;19981;-65
2021/11/20 01:11:59;;;;;;;;;;;;;;;;;;5081158;28;19930;-64
2021/11/20 01:14:26;;;;;;;;;;;;;;;;;;5075909;28;19924;-65
2021/11/20 01:16:53;;;;;;;;;;;;;;;;;;5082742;28;19932;-65
2021/11/20 01:19:20;;;;;;;;;;;;;;;;;;5077862;28;19980;-64
2021/11/20 01:21:47;;;;;;;;;;;;;;;;;;5073115;28;19932;-64
2021/11/20 01:24:14;;;;;;;;;;;;;;;;;;5074857;28;19924;-65
2021/11/20 01:26:41;;;;;;;;;;;;;;;;;;5084010;28;20402;-61
2021/11/20 01:29:08;;;;;;;;;;;;;;;;;;5076373;28;19924;-65
2021/11/20 01:31:35;;;;;;;;;;;;;;;;;;5077983;28;19935;-63
2021/11/20 01:34:02;;;;;;;;;;;;;;;;;;5082312;28;19928;-65
2021/11/20 01:36:29;;;;;;;;;;;;;;;;;;5080714;28;20006;-65
2021/11/20 01:38:56;;;;;;;;;;;;;;;;;;5071919;28;19940;-65
2021/11/20 01:41:23;;;;;;;;;;;;;;;;;;5075184;28;19942;-65
2021/11/20 01:43:50;;;;;;;;;;;;;;;;;;5078589;28;19946;-62
2021/11/20 01:46:17;;;;;;;;;;;;;;;;;;5078448;28;20407;-65
2021/11/20 01:48:44;;;;;;;;;;;;;;;;;;5069966;28;19994;-64
2021/11/20 01:51:11;;;;;;;;;;;;;;;;;;5078437;28;19931;-64
2021/11/20 01:53:38;;;;;;;;;;;;;;;;;;5073849;28;19924;-64
2021/11/20 01:56:05;;;;;;;;;;;;;;;;;;5068052;28;19924;-64
2021/11/20 01:58:32;;;;;;;;;;;;;;;;;;5075894;28;19928;-64
2021/11/20 02:00:59;;;;;;;;;;;;;;;;;;5079832;28;20175;-63
2021/11/20 02:03:26;;;;;;;;;;;;;;;;;;5071853;28;19924;-64
2021/11/20 02:05:53;;;;;;;;;;;;;;;;;;5072826;28;19924;-64
2021/11/20 02:08:20;;;;;;;;;;;;;;;;;;5077022;28;19933;-64
2021/11/20 02:10:47;;;;;;;;;;;;;;;;;;5077977;28;20388;-64
2021/11/20 02:13:14;;;;;;;;;;;;;;;;;;5081455;28;19929;-64
2021/11/20 02:15:41;;;;;;;;;;;;;;;;;;5078773;28;19924;-63
2021/11/20 02:18:08;;;;;;;;;;;;;;;;;;5071442;28;19981;-61
2021/11/20 02:20:35;;;;;;;;;;;;;;;;;;5072434;28;20392;-62
2021/11/20 02:23:02;;;;;;;;;;;;;;;;;;5083847;28;19931;-65
2021/11/20 02:25:28;;;;;;;;;;;;;;;;;;5076442;28;19932;-65
2021/11/20 02:27:56;;;;;;;;;;;;;;;;;;5074742;28;19924;-65
2021/11/20 02:30:23;;;;;;;;;;;;;;;;;;5076290;28;19931;-64
2021/11/20 02:32:50;;;;;;;;;;;;;;;;;;5076331;28;19935;-64
2021/11/20 02:35:18;;;;;;;;;;;;;;;;;;5079672;28;19967;-65
2021/11/20 02:37:45;;;;;;;;;;;;;;;;;;5077254;28;19971;-64
2021/11/20 02:40:12;;;;;;;;;;;;;;;;;;5086142;28;19933;-63
2021/11/20 02:42:39;;;;;;;;;;;;;;;;;;5077320;28;19929;-65
2021/11/20 02:45:06;;;;;;;;;;;;;;;;;;5079687;28;19934;-64
2021/11/20 02:47:33;;;;;;;;;;;;;;;;;;5078369;28;20414;-64
2021/11/20 02:50:00;;;;;;;;;;;;;;;;;;5079484;28;20307;-63
2021/11/20 02:52:26;;;;;;;;;;;;;;;;;;5074727;28;19924;-65
2021/11/20 02:54:53;;;;;;;;;;;;;;;;;;5073015;28;19935;-63
2021/11/20 02:57:20;;;;;;;;;;;;;;;;;;5075838;28;19924;-65
2021/11/20 02:59:47;;;;;;;;;;;;;;;;;;5081671;28;19931;-65
2021/11/20 03:02:14;;;;;;;;;;;;;;;;;;5081521;28;20659;-65
2021/11/20 03:04:41;;;;;;;;;;;;;;;;;;5078444;28;19932;-64
2021/11/20 03:07:08;;;;;;;;;;;;;;;;;;5078646;28;19924;-64
2021/11/20 03:09:35;;;;;;;;;;;;;;;;;;5078897;28;20187;-64
2021/11/20 03:12:03;;;;;;;;;;;;;;;;;;5080022;28;19924;-64
2021/11/20 03:14:30;;;;;;;;;;;;;;;;;;5077767;28;19925;-62
2021/11/20 03:16:57;;;;;;;;;;;;;;;;;;5081633;28;20019;-61
2021/11/20 03:19:24;;;;;;;;;;;;;;;;;;5078861;28;19992;-65
2021/11/20 03:21:51;;;;;;;;;;;;;;;;;;5071680;28;19941;-64
2021/11/20 03:24:18;;;;;;;;;;;;;;;;;;5071794;28;19924;-64
2021/11/20 03:26:45;;;;;;;;;;;;;;;;;;5075581;28;19928;-63
2021/11/20 03:29:12;;;;;;;;;;;;;;;;;;5074258;28;19932;-64
2021/11/20 03:31:39;;;;;;;;;;;;;;;;;;5069630;28;19935;-62
2021/11/20 03:34:05;;;;;;;;;;;;;;;;;;5076493;28;19925;-64
2021/11/20 03:36:34;;;;;;;;;;;;;;;;;;5080582;28;19924;-63
2021/11/20 03:39:01;;;;;;;;;;;;;;;;;;5075726;28;19928;-64
2021/11/20 03:41:28;;;;;;;;;;;;;;;;;;5075458;28;19931;-65
2021/11/20 03:43:55;;;;;;;;;;;;;;;;;;5074867;28;19932;-64
2021/11/20 03:46:22;;;;;;;;;;;;;;;;;;5079775;28;20924;-64
2021/11/20 03:48:49;;;;;;;;;;;;;;;;;;5079640;28;19925;-66
2021/11/20 03:51:16;;;;;;;;;;;;;;;;;;5077764;28;19946;-65
2021/11/20 03:53:43;;;;;;;;;;;;;;;;;;5079620;28;19925;-65
2021/11/20 03:56:10;;;;;;;;;;;;;;;;;;5078618;28;19946;-62
2021/11/20 03:58:38;;;;;;;;;;;;;;;;;;5069703;28;19925;-66
2021/11/20 04:01:06;;;;;;;;;;;;;;;;;;5070857;28;19990;-66
2021/11/20 04:03:33;;;;;;;;;;;;;;;;;;5071078;28;19925;-62
2021/11/20 04:06:00;;;;;;;;;;;;;;;;;;5068792;28;19932;-63
2021/11/20 04:08:27;;;;;;;;;;;;;;;;;;5081961;28;20315;-64
2021/11/20 04:10:54;;;;;;;;;;;;;;;;;;5081782;28;19932;-65
2021/11/20 04:13:21;;;;;;;;;;;;;;;;;;5081361;28;19925;-64
2021/11/20 04:15:48;;;;;;;;;;;;;;;;;;5078437;28;19932;-63
2021/11/20 04:18:15;;;;;;;;;;;;;;;;;;5084362;28;20035;-65
2021/11/20 04:20:42;;;;;;;;;;;;;;;;;;5080749;28;19932;-66
2021/11/20 04:23:09;;;;;;;;;;;;;;;;;;5080945;28;19947;-65
2021/11/20 04:25:36;;;;;;;;;;;;;;;;;;5083275;28;19931;-65
2021/11/20 04:28:03;;;;;;;;;;;;;;;;;;5088178;22;20006;-66
2021/11/20 04:30:30;;;;;;;;;;;;;;;;;;5064686;28;19971;-67
2021/11/20 04:32:57;;;;;;;;;;;;;;;;;;5067111;28;19933;-67
2021/11/20 04:35:24;;;;;;;;;;;;;;;;;;5063056;28;19932;-67
2021/11/20 04:37:51;;;;;;;;;;;;;;;;;;5067314;28;19931;-66
2021/11/20 04:40:18;;;;;;;;;;;;;;;;;;5050525;28;20467;-67
2021/11/20 04:42:45;;;;;;;;;;;;;;;;;;5046154;28;19947;-67
2021/11/20 04:45:12;;;;;;;;;;;;;;;;;;5048012;28;19943;-67
2021/11/20 04:47:39;;;;;;;;;;;;;;;;;;5038207;28;19929;-66
2021/11/20 04:50:06;;;;;;;;;;;;;;;;;;5044737;28;19925;-66
2021/11/20 04:52:33;;;;;;;;;;;;;;;;;;5037598;28;20385;-68
2021/11/20 04:55:00;;;;;;;;;;;;;;;;;;5044620;28;19929;-69
2021/11/20 04:57:27;;;;;;;;;;;;;;;;;;5035482;28;19965;-68
2021/11/20 04:59:54;;;;;;;;;;;;;;;;;;5037498;28;20303;-66
2021/11/20 05:02:21;;;;;;;;;;;;;;;;;;5038379;28;19936;-66
2021/11/20 05:04:48;;;;;;;;;;;;;;;;;;5039190;28;19929;-66
2021/11/20 05:07:16;;;;;;;;;;;;;;;;;;5044043;28;19935;-66
2021/11/20 05:09:43;;;;;;;;;;;;;;;;;;5039683;28;20450;-68
2021/11/20 05:12:10;;;;;;;;;;;;;;;;;;5044638;28;20423;-66
2021/11/20 05:14:37;;;;;;;;;;;;;;;;;;5046151;28;19925;-68
2021/11/20 05:17:05;;;;;;;;;;;;;;;;;;5040674;28;19933;-68
2021/11/20 05:19:32;;;;;;;;;;;;;;;;;;5043449;28;19947;-66
2021/11/20 05:21:59;;;;;;;;;;;;;;;;;;5042965;28;20021;-66
2021/11/20 05:24:26;;;;;;;;;;;;;;;;;;5042768;28;19932;-66
2021/11/20 05:26:53;;;;;;;;;;;;;;;;;;5045641;28;19931;-66
2021/11/20 05:29:26;;;;;;;;;;;;;;;;;;5047744;28;19924;-66
2021/11/20 05:31:53;;;;;;;;;;;;;;;;;;5041957;28;19933;-67
2021/11/20 05:34:20;;;;;;;;;;;;;;;;;;5041138;28;19931;-66
2021/11/20 05:36:47;;;;;;;;;;;;;;;;;;5036911;28;19941;-66
2021/11/20 05:39:14;;;;;;;;;;;;;;;;;;5040246;28;19925;-67
2021/11/20 05:41:41;;;;;;;;;;;;;;;;;;5042435;28;19955;-67
2021/11/20 05:44:08;;;;;;;;;;;;;;;;;;5050091;28;19932;-67
2021/11/20 05:46:35;;;;;;;;;;;;;;;;;;5036284;28;19936;-67
2021/11/20 05:49:02;;;;;;;;;;;;;;;;;;5043423;28;20032;-67
2021/11/20 05:51:29;;;;;;;;;;;;;;;;;;5040839;28;19932;-68
2021/11/20 05:53:56;;;;;;;;;;;;;;;;;;5036806;28;19933;-68
2021/11/20 05:56:23;;;;;;;;;;;;;;;;;;5038092;28;20337;-68
2021/11/20 05:58:50;;;;;;;;;;;;;;;;;;5043520;28;19925;-67
2021/11/20 06:01:17;;;;;;;;;;;;;;;;;;5043279;28;19936;-68
2021/11/20 06:03:44;;;;;;;;;;;;;;;;;;5037757;28;20357;-67
2021/11/20 06:06:11;;;;;;;;;;;;;;;;;;5038922;28;19932;-68
2021/11/20 06:08:38;;;;;;;;;;;;;;;;;;5049728;28;20125;-69
2021/11/20 06:11:05;;;;;;;;;;;;;;;;;;5042928;28;19925;-68
2021/11/20 06:13:32;;;;;;;;;;;;;;;;;;5047228;28;19931;-67
2021/11/20 06:15:59;;;;;;;;;;;;;;;;;;5042621;28;19925;-67
2021/11/20 06:18:26;;;;;;;;;;;;;;;;;;5038723;28;19925;-67
2021/11/20 06:20:53;;;;;;;;;;;;;;;;;;5039496;28;19933;-68
2021/11/20 06:23:20;;;;;;;;;;;;;;;;;;5038814;28;19933;-67
2021/11/20 06:25:47;;;;;;;;;;;;;;;;;;5038001;28;19925;-68
2021/11/20 06:28:14;;;;;;;;;;;;;;;;;;5040060;28;19928;-67
2021/11/20 06:30:41;;;;;;;;;;;;;;;;;;5049572;28;19932;-67
2021/11/20 06:33:08;;;;;;;;;;;;;;;;;;5040391;28;20332;-66
2021/11/20 06:35:35;;;;;;;;;;;;;;;;;;5043824;28;20304;-67
2021/11/20 06:38:01;;;;;;;;;;;;;;;;;;5043247;28;19932;-67
2021/11/20 06:40:28;;;;;;;;;;;;;;;;;;5043337;28;19935;-68
2021/11/20 06:42:55;;;;;;;;;;;;;;;;;;5034736;28;19929;-67
2021/11/20 06:45:22;;;;;;;;;;;;;;;;;;5039745;28;19925;-67
2021/11/20 06:47:49;;;;;;;;;;;;;;;;;;5035941;28;19929;-67
2021/11/20 06:50:16;;;;;;;;;;;;;;;;;;5040058;28;19925;-67
2021/11/20 06:52:43;;;;;;;;;;;;;;;;;;5038604;28;19936;-67
2021/11/20 06:55:10;;;;;;;;;;;;;;;;;;5038893;28;19925;-67
2021/11/20 06:57:50;;;;;;;;;;;;;;;;;;5036662;28;19925;-66
2021/11/20 07:00:29;;;;;;;;;;;;;;;;;;5039323;28;19932;-67
2021/11/20 07:02:56;;;;;;;;;;;;;;;;;;5037048;28;20449;-67
2021/11/20 07:05:23;;;;;;;;;;;;;;;;;;5037565;28;20016;-66
2021/11/20 07:07:49;;;;;;;;;;;;;;;;;;5040071;28;19925;-67
2021/11/20 07:10:20;;;;;;;;;;;;;;;;;;5041862;28;20309;-67
2021/11/20 07:12:47;;;;;;;;;;;;;;;;;;5040549;28;19929;-66
2021/11/20 07:15:14;;;;;;;;;;;;;;;;;;5040329;28;19951;-67
2021/11/20 07:17:41;;;;;;;;;;;;;;;;;;5038840;28;20327;-66
2021/11/20 07:20:08;;;;;;;;;;;;;;;;;;5039354;28;20032;-66
2021/11/20 07:22:35;;;;;;;;;;;;;;;;;;5037933;28;19931;-66
2021/11/20 07:25:02;;;;;;;;;;;;;;;;;;5042187;28;19925;-67
2021/11/20 07:27:29;;;;;;;;;;;;;;;;;;5038418;28;20015;-66
2021/11/20 07:29:56;;;;;;;;;;;;;;;;;;5037277;28;20035;-67
2021/11/20 07:32:26;;;;;;;;;;;;;;;;;;5039000;28;19925;-67
2021/11/20 07:34:53;;;;;;;;;;;;;;;;;;5035088;28;19929;-67
2021/11/20 07:37:20;;;;;;;;;;;;;;;;;;5038065;28;19932;-67
2021/11/20 07:39:47;;;;;;;;;;;;;;;;;;5042062;28;20273;-67
2021/11/20 07:42:14;;;;;;;;;;;;;;;;;;5037318;28;20421;-67
2021/11/20 07:44:41;;;;;;;;;;;;;;;;;;5041254;28;19933;-67
2021/11/20 07:47:08;;;;;;;;;;;;;;;;;;5045168;28;19932;-67
2021/11/20 07:49:35;;;;;;;;;;;;;;;;;;5044387;28;19932;-67
2021/11/20 07:52:01;;;;;;;;;;;;;;;;;;5045362;28;19931;-68
2021/11/20 07:54:28;;;;;;;;;;;;;;;;;;5042190;28;20380;-66
2021/11/20 07:56:55;;;;;;;;;;;;;;;;;;5041684;28;20373;-67
2021/11/20 07:59:24;;;;;;;;;;;;;;;;;;5044164;28;20308;-67
2021/11/20 08:01:51;;;;;;;;;;;;;;;;;;5040561;28;19949;-68
2021/11/20 08:04:18;;;;;;;;;;;;;;;;;;5040444;28;19929;-67
2021/11/20 08:06:45;;;;;;;;;;;;;;;;;;5042288;28;20329;-68
2021/11/20 08:09:12;;;;;;;;;;;;;;;;;;5041876;28;19932;-68
2021/11/20 08:11:39;;;;;;;;;;;;;;;;;;5038348;28;19925;-68
2021/11/20 08:14:06;;;;;;;;;;;;;;;;;;5041495;28;20019;-68
2021/11/20 08:16:33;;;;;;;;;;;;;;;;;;5038561;28;19925;-69
2021/11/20 08:19:00;;;;;;;;;;;;;;;;;;5045776;28;19929;-68
2021/11/20 08:21:28;;;;;;;;;;;;;;;;;;5038509;28;19952;-66
2021/11/20 08:23:55;;;;;;;;;;;;;;;;;;5044436;28;19925;-68
2021/11/20 08:26:23;;;;;;;;;;;;;;;;;;5044287;28;19929;-67
2021/11/20 08:28:50;;;;;;;;;;;;;;;;;;5043991;28;20273;-68
2021/11/20 08:31:17;;;;;;;;;;;;;;;;;;5045968;28;19932;-69
2021/11/20 08:33:44;;;;;;;;;;;;;;;;;;5041163;28;19931;-68
2021/11/20 08:36:11;;;;;;;;;;;;;;;;;;5041444;28;19976;-68
2021/11/20 08:38:38;;;;;;;;;;;;;;;;;;5042087;28;19929;-68
2021/11/20 08:41:05;;;;;;;;;;;;;;;;;;5040894;28;19925;-69
2021/11/20 08:43:32;;;;;;;;;;;;;;;;;;5045818;28;20028;-67
2021/11/20 08:45:59;;;;;;;;;;;;;;;;;;5042511;28;19929;-70
2021/11/20 08:48:26;;;;;;;;;;;;;;;;;;5036928;28;19925;-67
2021/11/20 08:50:52;;;;;;;;;;;;;;;;;;5037366;28;19940;-67
2021/11/20 08:53:19;;;;;;;;;;;;;;;;;;5032764;28;19929;-67
2021/11/20 08:55:46;;;;;;;;;;;;;;;;;;5029023;28;19951;-66
2021/11/20 08:58:13;;;;;;;;;;;;;;;;;;5026614;28;20300;-68
2021/11/20 09:00:40;;;;;;;;;;;;;;;;;;5032528;28;19968;-67
2021/11/20 09:03:07;;;;;;;;;;;;;;;;;;5041076;28;19970;-68
2021/11/20 09:05:34;;;;;;;;;;;;;;;;;;5041627;28;19925;-66
2021/11/20 09:08:03;;;;;;;;;;;;;;;;;;5036278;28;20001;-67
2021/11/20 09:10:30;;;;;;;;;;;;;;;;;;5036169;28;19932;-67
2021/11/20 09:12:57;;;;;;;;;;;;;;;;;;5037850;28;19936;-67
2021/11/20 09:15:23;;;;;;;;;;;;;;;;;;5037188;28;20392;-68
2021/11/20 09:17:50;;;;;;;;;;;;;;;;;;5034690;28;19929;-68
2021/11/20 09:20:17;;;;;;;;;;;;;;;;;;5037625;28;19924;-68
2021/11/20 09:22:44;;;;;;;;;;;;;;;;;;5034475;28;19940;-67
2021/11/20 09:25:12;;;;;;;;;;;;;;;;;;5036286;28;19932;-67
2021/11/20 09:27:39;;;;;;;;;;;;;;;;;;5036748;28;19968;-68
2021/11/20 09:30:07;;;;;;;;;;;;;;;;;;5036052;28;19925;-68
2021/11/20 09:32:34;;;;;;;;;;;;;;;;;;5039897;28;20399;-67
2021/11/20 09:35:01;;;;;;;;;;;;;;;;;;5038286;28;19935;-67
2021/11/20 09:37:28;;;;;;;;;;;;;;;;;;5040370;28;19929;-68
2021/11/20 09:39:55;;;;;;;;;;;;;;;;;;5038478;28;19929;-68
2021/11/20 09:42:22;;;;;;;;;;;;;;;;;;5027351;28;20020;-67
2021/11/20 09:44:48;;;;;;;;;;;;;;;;;;5038978;28;19925;-67
2021/11/20 09:47:15;;;;;;;;;;;;;;;;;;5039706;28;19931;-67
2021/11/20 09:49:42;;;;;;;;;;;;;;;;;;5035032;28;19947;-67
2021/11/20 09:52:09;;;;;;;;;;;;;;;;;;5030453;28;20291;-66
2021/11/20 09:54:36;;;;;;;;;;;;;;;;;;5031856;28;19929;-67
2021/11/20 09:57:03;;;;;;;;;;;;;;;;;;5029400;28;19925;-66
2021/11/20 09:59:30;;;;;;;;;;;;;;;;;;5037649;28;19939;-67
2021/11/20 10:01:57;;;;;;;;;;;;;;;;;;5035350;28;19999;-66
2021/11/20 10:04:25;;;;;;;;;;;;;;;;;;5028031;28;20052;-68
2021/11/20 10:06:52;;;;;;;;;;;;;;;;;;5041620;28;19925;-69
2021/11/20 10:09:19;;;;;;;;;;;;;;;;;;5041191;28;19931;-67
2021/11/20 10:11:46;;;;;;;;;;;;;;;;;;5040699;28;19931;-68
2021/11/20 10:14:13;;;;;;;;;;;;;;;;;;5042264;28;19968;-67
2021/11/20 10:16:40;;;;;;;;;;;;;;;;;;5040365;28;19925;-67
2021/11/20 10:19:07;;;;;;;;;;;;;;;;;;5041511;28;20023;-67
2021/11/20 10:21:33;;;;;;;;;;;;;;;;;;5039976;28;19925;-67
2021/11/20 10:24:00;;;;;;;;;;;;;;;;;;5044452;28;19925;-66
2021/11/20 10:26:27;;;;;;;;;;;;;;;;;;5042612;28;19980;-68
2021/11/20 10:28:54;;;;;;;;;;;;;;;;;;5067808;22;19977;-66
2021/11/20 10:31:21;;;;;;;;;;;;;;;;;;5082251;28;19931;-66
2021/11/20 10:33:49;;;;;;;;;;;;;;;;;;5083206;28;20068;-67
2021/11/20 10:36:16;;;;;;;;;;;;;;;;;;5082644;28;19970;-66
2021/11/20 10:38:42;;;;;;;;;;;;;;;;;;5078714;28;20365;-67
2021/11/20 10:41:09;;;;;;;;;;;;;;;;;;5063844;28;19924;-66
2021/11/20 10:43:36;;;;;;;;;;;;;;;;;;5064900;28;19929;-66
2021/11/20 10:46:03;;;;;;;;;;;;;;;;;;5070192;28;19959;-67
2021/11/20 10:48:30;;;;;;;;;;;;;;;;;;5056172;28;19932;-66
2021/11/20 10:50:57;;;;;;;;;;;;;;;;;;5060946;28;20015;-66
2021/11/20 10:53:24;;;;;;;;;;;;;;;;;;5063742;28;19925;-66
2021/11/20 10:55:52;;;;;;;;;;;;;;;;;;5064424;28;20399;-66
2021/11/20 10:58:19;;;;;;;;;;;;;;;;;;5062266;28;19971;-65
2021/11/20 11:00:46;;;;;;;;;;;;;;;;;;5064344;28;20410;-65
2021/11/20 11:03:13;;;;;;;;;;;;;;;;;;5062956;28;20353;-66
2021/11/20 11:05:40;;;;;;;;;;;;;;;;;;5061852;28;19967;-65
2021/11/20 11:08:07;;;;;;;;;;;;;;;;;;5067030;28;19929;-66
2021/11/20 11:10:34;;;;;;;;;;;;;;;;;;5062374;28;19932;-66
2021/11/20 11:13:01;;;;;;;;;;;;;;;;;;5070849;28;19935;-67
2021/11/20 11:15:28;;;;;;;;;;;;;;;;;;5064659;28;19924;-66
2021/11/20 11:17:56;;;;;;;;;;;;;;;;;;5066259;28;19975;-66
2021/11/20 11:20:23;;;;;;;;;;;;;;;;;;5063564;28;19929;-66
2021/11/20 11:22:50;;;;;;;;;;;;;;;;;;5064021;28;19925;-66
2021/11/20 11:25:17;;;;;;;;;;;;;;;;;;5063985;28;20031;-66
2021/11/20 11:27:44;;;;;;;;;;;;;;;;;;5060732;28;20470;-66
2021/11/20 11:30:11;;;;;;;;;;;;;;;;;;5064662;28;19925;-66
2021/11/20 11:32:38;;;;;;;;;;;;;;;;;;5061719;28;19932;-66
2021/11/20 11:35:05;;;;;;;;;;;;;;;;;;5064399;28;19995;-66
2021/11/20 11:37:32;;;;;;;;;;;;;;;;;;5059224;28;19925;-65
2021/11/20 11:39:59;;;;;;;;;;;;;;;;;;5060801;28;19960;-66
2021/11/20 11:42:26;;;;;;;;;;;;;;;;;;5061929;28;19924;-66
2021/11/20 11:44:53;;;;;;;;;;;;;;;;;;5063956;28;20034;-66
2021/11/20 11:47:20;;;;;;;;;;;;;;;;;;5060862;28;19925;-66
2021/11/20 11:49:47;;;;;;;;;;;;;;;;;;5066246;28;19925;-66
2021/11/20 11:52:14;;;;;;;;;;;;;;;;;;5067043;28;20383;-66
2021/11/20 11:54:41;;;;;;;;;;;;;;;;;;5063149;28;20377;-66
2021/11/20 11:57:08;;;;;;;;;;;;;;;;;;5058624;28;19931;-66
2021/11/20 11:59:35;;;;;;;;;;;;;;;;;;5064691;28;19924;-65
2021/11/20 12:02:02;;;;;;;;;;;;;;;;;;5064656;28;20296;-66
2021/11/20 12:04:29;;;;;;;;;;;;;;;;;;5058427;28;20439;-66
2021/11/20 12:06:57;;;;;;;;;;;;;;;;;;5061344;28;19929;-66
2021/11/20 12:09:24;;;;;;;;;;;;;;;;;;5061373;28;20011;-66
2021/11/20 12:11:51;;;;;;;;;;;;;;;;;;5063106;28;19924;-66
2021/11/20 12:14:18;;;;;;;;;;;;;;;;;;5063770;28;19928;-66
2021/11/20 12:16:45;;;;;;;;;;;;;;;;;;5064624;28;19947;-66
2021/11/20 12:19:12;;;;;;;;;;;;;;;;;;5064100;28;19925;-66
2021/11/20 12:21:39;;;;;;;;;;;;;;;;;;5061805;28;19932;-65
2021/11/20 12:24:06;;;;;;;;;;;;;;;;;;5065409;28;19948;-65
2021/11/20 12:26:33;;;;;;;;;;;;;;;;;;5059831;28;19924;-65
2021/11/20 12:29:00;;;;;;;;;;;;;;;;;;5066583;28;19924;-65
2021/11/20 12:31:28;;;;;;;;;;;;;;;;;;5071589;28;19924;-65
2021/11/20 12:33:55;;;;;;;;;;;;;;;;;;5066012;28;20017;-66
2021/11/20 12:36:22;;;;;;;;;;;;;;;;;;5062773;28;19925;-66
2021/11/20 12:38:49;;;;;;;;;;;;;;;;;;5061063;28;19929;-66
2021/11/20 12:41:16;;;;;;;;;;;;;;;;;;5067260;28;19925;-66
2021/11/20 12:43:43;;;;;;;;;;;;;;;;;;5068533;28;20007;-66
2021/11/20 12:46:10;;;;;;;;;;;;;;;;;;5067182;28;19929;-66
2021/11/20 12:48:37;;;;;;;;;;;;;;;;;;5065609;28;20031;-65
2021/11/20 12:51:04;;;;;;;;;;;;;;;;;;5060602;28;19950;-65
2021/11/20 12:53:31;;;;;;;;;;;;;;;;;;5069002;28;19925;-66
2021/11/20 12:55:57;;;;;;;;;;;;;;;;;;5066070;28;19978;-64
2021/11/20 12:58:24;;;;;;;;;;;;;;;;;;5066176;28;19925;-65
2021/11/20 13:00:51;;;;;;;;;;;;;;;;;;5063156;28;20348;-66
2021/11/20 13:03:22;;;;;;;;;;;;;;;;;;5060919;28;20459;-66
2021/11/20 13:05:49;;;;;;;;;;;;;;;;;;5068044;28;19939;-66
2021/11/20 13:08:16;;;;;;;;;;;;;;;;;;5065981;28;19925;-66
2021/11/20 13:10:44;;;;;;;;;;;;;;;;;;5069078;28;19924;-66
2021/11/20 13:13:11;;;;;;;;;;;;;;;;;;5070197;28;19924;-66
2021/11/20 13:15:38;;;;;;;;;;;;;;;;;;5063512;28;20491;-65
2021/11/20 13:18:05;;;;;;;;;;;;;;;;;;5069069;28;19947;-66
2021/11/20 13:20:33;;;;;;;;;;;;;;;;;;5065106;28;19936;-66
2021/11/20 13:23:00;;;;;;;;;;;;;;;;;;5065708;28;20000;-65
2021/11/20 13:25:27;;;;;;;;;;;;;;;;;;5071779;28;20368;-66
2021/11/20 13:27:54;;;;;;;;;;;;;;;;;;5063432;28;20391;-66
2021/11/20 13:30:21;;;;;;;;;;;;;;;;;;5068182;28;19931;-66
2021/11/20 13:32:47;;;;;;;;;;;;;;;;;;5064115;28;20016;-66
2021/11/20 13:35:14;;;;;;;;;;;;;;;;;;5060617;28;19929;-66
2021/11/20 13:37:41;;;;;;;;;;;;;;;;;;5063868;28;19939;-66
2021/11/20 13:40:08;;;;;;;;;;;;;;;;;;5066545;28;20148;-66
2021/11/20 13:42:35;;;;;;;;;;;;;;;;;;5061523;28;19928;-66
2021/11/20 13:45:02;;;;;;;;;;;;;;;;;;5064481;28;20299;-66
2021/11/20 13:47:29;;;;;;;;;;;;;;;;;;5067669;28;19979;-66
2021/11/20 13:49:56;;;;;;;;;;;;;;;;;;5066565;28;19931;-66
2021/11/20 13:52:23;;;;;;;;;;;;;;;;;;5062542;28;20379;-66
2021/11/20 13:54:50;;;;;;;;;;;;;;;;;;5065332;28;19925;-66
2021/11/20 13:57:17;;;;;;;;;;;;;;;;;;5058667;28;19928;-66
2021/11/20 13:59:44;;;;;;;;;;;;;;;;;;5068310;28;20016;-66
2021/11/20 14:02:12;;;;;;;;;;;;;;;;;;5063517;28;20414;-66
2021/11/20 14:04:41;;;;;;;;;;;;;;;;;;5062995;28;20415;-66
2021/11/20 14:07:08;;;;;;;;;;;;;;;;;;5067027;28;20030;-66
2021/11/20 14:09:44;;;;;;;;;;;;;;;;;;5067640;28;20003;-67
2021/11/20 14:12:13;;;;;;;;;;;;;;;;;;5062225;28;19925;-66
2021/11/20 14:14:40;;;;;;;;;;;;;;;;;;5061518;28;20399;-67
2021/11/20 14:17:07;;;;;;;;;;;;;;;;;;5065141;28;19931;-66
2021/11/20 14:19:34;;;;;;;;;;;;;;;;;;5065007;28;19928;-67
2021/11/20 14:22:01;;;;;;;;;;;;;;;;;;5066650;28;20011;-67
2021/11/20 14:24:28;;;;;;;;;;;;;;;;;;5067384;28;19928;-66
2021/11/20 14:26:57;;;;;;;;;;;;;;;;;;5064592;28;20357;-67
2021/11/20 14:29:24;;;;;;;;;;;;;;;;;;5058871;28;20292;-67
2021/11/20 14:31:50;;;;;;;;;;;;;;;;;;5066005;28;19925;-67
2021/11/20 14:34:18;;;;;;;;;;;;;;;;;;5064620;28;20307;-67
2021/11/20 14:36:46;;;;;;;;;;;;;;;;;;5064293;28;19925;-66
2021/11/20 14:39:16;;;;;;;;;;;;;;;;;;5066714;28;20320;-68
2021/11/20 14:41:43;;;;;;;;;;;;;;;;;;5072746;28;19946;-66
2021/11/20 14:44:10;;;;;;;;;;;;;;;;;;5065578;28;19928;-66
2021/11/20 14:46:37;;;;;;;;;;;;;;;;;;5064791;28;19936;-66
2021/11/20 14:49:04;;;;;;;;;;;;;;;;;;5066837;28;19924;-66
2021/11/20 14:51:31;;;;;;;;;;;;;;;;;;5064243;28;19928;-66
2021/11/20 14:53:58;;;;;;;;;;;;;;;;;;5066487;28;19932;-66
2021/11/20 14:56:27;;;;;;;;;;;;;;;;;;5059013;28;19928;-66
2021/11/20 14:58:54;;;;;;;;;;;;;;;;;;5066938;28;19932;-67
2021/11/20 15:01:23;;;;;;;;;;;;;;;;;;5067059;28;19939;-67
2021/11/20 15:03:51;;;;;;;;;;;;;;;;;;5066274;28;19928;-67
2021/11/20 15:06:18;;;;;;;;;;;;;;;;;;5060757;28;20442;-65
2021/11/20 15:08:44;;;;;;;;;;;;;;;;;;5063497;28;19925;-65
2021/11/20 15:11:11;;;;;;;;;;;;;;;;;;5062655;28;19925;-65
2021/11/20 15:13:38;;;;;;;;;;;;;;;;;;5064821;28;19925;-65
2021/11/20 15:16:05;;;;;;;;;;;;;;;;;;5069009;28;19928;-65
2021/11/20 15:18:32;;;;;;;;;;;;;;;;;;5065338;28;20023;-65
2021/11/20 15:21:00;;;;;;;;;;;;;;;;;;5065003;28;20019;-65
2021/11/20 15:23:27;;;;;;;;;;;;;;;;;;5065714;28;19943;-66
2021/11/20 15:25:54;;;;;;;;;;;;;;;;;;5060153;28;19931;-66
2021/11/20 15:28:21;;;;;;;;;;;;;;;;;;5066997;28;19924;-66
2021/11/20 15:30:48;;;;;;;;;;;;;;;;;;5071012;28;20281;-66
2021/11/20 15:33:14;;;;;;;;;;;;;;;;;;5066517;28;19924;-66
2021/11/20 15:35:41;;;;;;;;;;;;;;;;;;5069933;28;19938;-67
2021/11/20 15:38:08;;;;;;;;;;;;;;;;;;5064092;28;20016;-66
2021/11/20 15:40:35;;;;;;;;;;;;;;;;;;5062671;28;19936;-66
2021/11/20 15:43:03;;;;;;;;;;;;;;;;;;5062106;28;19931;-66
2021/11/20 15:45:30;;;;;;;;;;;;;;;;;;5070264;28;19928;-66
2021/11/20 15:47:57;;;;;;;;;;;;;;;;;;5063431;28;20281;-65
2021/11/20 15:50:24;;;;;;;;;;;;;;;;;;5066707;28;19990;-65
2021/11/20 15:52:51;;;;;;;;;;;;;;;;;;5063278;28;19935;-65
2021/11/20 15:55:18;;;;;;;;;;;;;;;;;;5061641;28;20175;-65
2021/11/20 15:57:45;;;;;;;;;;;;;;;;;;5061691;28;19924;-65
2021/11/20 16:00:12;;;;;;;;;;;;;;;;;;5064195;28;19924;-66
2021/11/20 16:02:40;;;;;;;;;;;;;;;;;;5060784;28;19940;-66
2021/11/20 16:05:07;;;;;;;;;;;;;;;;;;5067228;28;19932;-65
2021/11/20 16:07:34;;;;;;;;;;;;;;;;;;5069404;28;19924;-65
2021/11/20 16:10:01;;;;;;;;;;;;;;;;;;5068816;28;19974;-66
2021/11/20 16:12:28;;;;;;;;;;;;;;;;;;5068945;28;19931;-65
2021/11/20 16:14:54;;;;;;;;;;;;;;;;;;5062698;28;19934;-65
2021/11/20 16:17:21;;;;;;;;;;;;;;;;;;5065000;28;19979;-66
2021/11/20 16:19:48;;;;;;;;;;;;;;;;;;5063292;28;19947;-66
2021/11/20 16:22:15;;;;;;;;;;;;;;;;;;5057392;28;20295;-66
2021/11/20 16:24:42;;;;;;;;;;;;;;;;;;5063809;28;20419;-66
2021/11/20 16:27:10;;;;;;;;;;;;;;;;;;5059825;28;20503;-66
2021/11/20 16:29:37;;;;;;;;;;;;;;;;;;5084964;22;19931;-67
2021/11/20 16:32:04;;;;;;;;;;;;;;;;;;5085501;28;20827;-68
2021/11/20 16:34:31;;;;;;;;;;;;;;;;;;5088949;28;20007;-67
2021/11/20 16:36:58;;;;;;;;;;;;;;;;;;5080623;28;19946;-69
2021/11/20 16:39:25;;;;;;;;;;;;;;;;;;5077113;28;20394;-67
2021/11/20 16:41:52;;;;;;;;;;;;;;;;;;5064695;28;20085;-68
2021/11/20 16:44:19;;;;;;;;;;;;;;;;;;5065142;28;20411;-67